createdAt,value
2023-02-14T00:00:39.281Z,99.52
2023-02-14T00:03:08.605Z,99.32
2023-02-14T00:05:38.074Z,103.27
2023-02-14T00:08:07.405Z,108.03
2023-02-14T00:10:36.983Z,98.35
2023-02-14T00:13:06.674Z,91.75
2023-02-14T00:15:35.915Z,103.45
2023-02-14T00:18:06.499Z,106.50
2023-02-14T00:20:37.010Z,98.25
2023-02-14T00:23:06.341Z,109.00
2023-02-14T00:25:36.303Z,107.83
2023-02-14T00:28:05.650Z,105.87
2023-02-14T00:30:36.111Z,102.00
2023-02-14T00:33:06.965Z,100.47
2023-02-14T00:35:39.093Z,91.25
2023-02-14T00:38:08.649Z,89.25
2023-02-14T00:40:39.800Z,101.00
2023-02-14T00:43:09.032Z,93.30
2023-02-14T00:45:38.365Z,101.75
2023-02-14T00:48:07.914Z,93.87
2023-02-14T00:50:37.138Z,94.95
2023-02-14T00:53:07.133Z,100.22
2023-02-14T00:55:36.377Z,96.10
2023-02-14T00:58:05.913Z,100.97
2023-02-14T01:00:35.203Z,101.85
2023-02-14T01:03:04.671Z,102.75
2023-02-14T01:05:33.899Z,113.20
2023-02-14T01:08:05.213Z,104.07
2023-02-14T01:10:35.015Z,96.20
2023-02-14T01:13:04.452Z,93.03
2023-02-14T01:15:38.554Z,92.82
2023-02-14T01:20:36.535Z,94.37
2023-02-14T01:23:06.459Z,98.75
2023-02-14T01:25:38.004Z,100.35
2023-02-14T01:28:08.048Z,109.23
2023-02-14T01:30:37.415Z,101.82
2023-02-14T01:33:06.797Z,113.72
2023-02-14T01:35:40.484Z,99.22
2023-02-14T01:38:09.727Z,106.15
2023-02-14T01:40:43.967Z,110.35
2023-02-14T01:43:17.464Z,105.32
2023-02-14T01:45:47.133Z,107.78
2023-02-14T01:48:17.793Z,110.78
2023-02-14T01:50:47.840Z,108.90
2023-02-14T01:53:20.267Z,110.32
2023-02-14T01:58:25.069Z,105.12
2023-02-14T02:00:59.317Z,102.92
2023-02-14T02:03:38.100Z,104.70
2023-02-14T02:06:10.508Z,105.72
2023-02-14T02:11:09.044Z,111.28
2023-02-14T02:13:38.506Z,117.45
2023-02-14T02:16:23.158Z,108.67
2023-02-14T02:19:05.917Z,107.35
2023-02-14T02:22:03.455Z,110.22
2023-02-14T02:24:58.741Z,100.58
2023-02-14T02:27:34.234Z,108.20
2023-02-14T02:30:24.902Z,110.35
2023-02-14T02:33:15.466Z,107.03
2023-02-14T02:36:06.329Z,111.10
2023-02-14T02:38:57.217Z,117.60
2023-02-14T02:41:47.808Z,109.35
2023-02-14T02:44:26.919Z,111.35
2023-02-14T02:47:05.568Z,106.15
2023-02-14T02:49:55.896Z,110.90
2023-02-14T02:52:58.310Z,108.67
2023-02-14T02:55:57.925Z,109.25
2023-02-14T02:58:31.098Z,114.67
2023-02-14T03:01:02.041Z,109.75
2023-02-14T03:03:52.748Z,110.92
2023-02-14T03:06:23.059Z,108.15
2023-02-14T03:08:52.523Z,108.17
2023-02-14T03:11:22.219Z,112.62
2023-02-14T03:14:00.631Z,109.57
2023-02-14T03:16:33.366Z,103.40
2023-02-14T03:19:14.970Z,119.10
2023-02-14T03:21:59.410Z,109.35
2023-02-14T03:24:47.503Z,106.25
2023-02-14T03:27:23.120Z,127.40
2023-02-14T03:29:55.735Z,115.67
2023-02-14T03:32:40.645Z,125.10
2023-02-14T03:35:13.393Z,113.95
2023-02-14T03:38:09.420Z,118.45
2023-02-14T03:40:49.687Z,115.80
2023-02-14T03:43:22.334Z,115.57
2023-02-14T03:45:55.145Z,114.03
2023-02-14T03:48:26.034Z,115.20
2023-02-14T03:50:55.729Z,107.75
2023-02-14T03:53:27.349Z,116.53
2023-02-14T03:56:18.491Z,109.05
2023-02-14T03:58:50.759Z,113.70
2023-02-14T04:01:26.018Z,110.10
2023-02-14T04:03:56.903Z,115.90
2023-02-14T04:06:26.273Z,121.55
2023-02-14T04:08:55.725Z,108.07
2023-02-14T04:11:25.049Z,113.05
2023-02-14T04:13:54.688Z,110.15
2023-02-14T04:16:24.011Z,123.60
2023-02-14T04:19:11.595Z,111.88
2023-02-14T04:21:41.294Z,107.12
2023-02-14T04:24:10.810Z,107.50
2023-02-14T04:26:41.738Z,100.05
2023-02-14T04:29:11.041Z,110.72
2023-02-14T04:31:40.578Z,118.60
2023-02-14T04:34:09.924Z,121.40
2023-02-14T04:36:39.532Z,112.08
2023-02-14T04:39:08.745Z,110.15
2023-02-14T04:41:38.337Z,112.97
2023-02-14T04:44:07.594Z,125.10
2023-02-14T04:46:37.180Z,120.72
2023-02-14T04:49:06.464Z,121.47
2023-02-14T04:51:35.736Z,118.82
2023-02-14T04:54:05.159Z,117.93
2023-02-14T04:56:34.406Z,108.67
2023-02-14T04:59:03.765Z,123.62
2023-02-14T05:01:33.056Z,134.30
2023-02-14T05:04:02.483Z,115.37
2023-02-14T05:06:32.914Z,123.82
2023-02-14T05:09:02.517Z,125.02
2023-02-14T05:11:32.403Z,131.07
2023-02-14T05:14:01.713Z,129.82
2023-02-14T05:16:31.490Z,129.82
2023-02-14T05:19:01.165Z,135.90
2023-02-14T05:21:32.085Z,135.75
2023-02-14T05:24:02.066Z,137.07
2023-02-14T05:26:31.841Z,148.47
2023-02-14T05:29:01.093Z,148.82
2023-02-14T05:31:30.778Z,168.78
2023-02-14T05:34:00.118Z,163.87
2023-02-14T05:36:29.382Z,158.80
2023-02-14T05:38:58.646Z,154.15
2023-02-14T05:41:28.058Z,155.87
2023-02-14T05:43:57.363Z,152.45
2023-02-14T05:46:26.729Z,153.80
2023-02-14T05:48:55.965Z,160.72
2023-02-14T05:51:25.509Z,156.80
2023-02-14T05:53:54.775Z,157.60
2023-02-14T05:56:24.135Z,156.93
2023-02-14T05:58:53.459Z,163.97
2023-02-14T06:01:23.035Z,151.47
2023-02-14T06:03:52.268Z,160.12
2023-02-14T06:06:21.560Z,170.47
2023-02-14T06:08:50.783Z,169.60
2023-02-14T06:11:20.375Z,164.57
2023-02-14T06:13:49.931Z,155.32
2023-02-14T06:16:19.379Z,156.78
2023-02-14T06:18:48.974Z,159.72
2023-02-14T06:21:18.251Z,145.57
2023-02-14T06:23:47.856Z,164.45
2023-02-14T06:26:17.188Z,163.40
2023-02-14T06:28:46.690Z,153.12
2023-02-14T06:31:17.855Z,155.82
2023-02-14T06:33:47.260Z,147.43
2023-02-14T06:36:16.761Z,140.25
2023-02-14T06:38:47.962Z,164.37
2023-02-14T06:41:18.215Z,156.57
2023-02-14T06:43:51.162Z,154.60
2023-02-14T06:46:20.944Z,146.02
2023-02-14T06:48:50.230Z,160.63
2023-02-14T06:51:19.456Z,158.12
2023-02-14T06:53:48.724Z,154.57
2023-02-14T06:56:17.968Z,171.13
2023-02-14T06:58:47.237Z,168.93
2023-02-14T07:01:16.868Z,179.57
2023-02-14T07:03:46.235Z,170.07
2023-02-14T07:06:15.714Z,183.45
2023-02-14T07:08:45.622Z,176.93
2023-02-14T07:11:15.060Z,185.93
2023-02-14T07:13:44.428Z,178.42
2023-02-14T07:16:13.731Z,181.02
2023-02-14T07:18:43.018Z,182.90
2023-02-14T07:21:12.421Z,168.57
2023-02-14T07:23:54.993Z,174.20
2023-02-14T07:28:52.957Z,176.97
2023-02-14T07:31:23.859Z,191.05
2023-02-14T07:33:53.269Z,202.87
2023-02-14T07:36:22.523Z,199.65
2023-02-14T07:38:51.760Z,197.00
2023-02-14T07:41:21.043Z,203.58
2023-02-14T07:43:50.783Z,198.75
2023-02-14T07:46:20.119Z,206.17
2023-02-14T07:48:50.645Z,197.87
2023-02-14T07:51:20.001Z,219.55
2023-02-14T07:53:49.294Z,207.37
2023-02-14T07:56:18.577Z,204.57
2023-02-14T07:58:49.634Z,203.80
2023-02-14T08:01:19.448Z,200.87
2023-02-14T08:03:52.735Z,208.13
2023-02-14T08:06:22.241Z,196.20
2023-02-14T08:08:51.602Z,205.35
2023-02-14T08:11:38.953Z,194.95
2023-02-14T08:14:08.269Z,208.05
2023-02-14T08:16:38.414Z,200.57
2023-02-14T08:19:07.932Z,189.28
2023-02-14T08:21:37.256Z,179.68
2023-02-14T08:24:06.908Z,182.62
2023-02-14T08:26:36.161Z,186.28
2023-02-14T08:29:05.676Z,175.00
2023-02-14T08:31:36.483Z,187.32
2023-02-14T08:34:07.189Z,167.40
2023-02-14T08:36:36.525Z,169.53
2023-02-14T08:39:06.584Z,160.05
2023-02-14T08:41:36.411Z,165.82
2023-02-14T08:44:05.921Z,159.27
2023-02-14T08:46:35.270Z,153.57
2023-02-14T08:49:04.951Z,153.53
2023-02-14T08:51:34.212Z,146.65
2023-02-14T08:54:03.693Z,153.23
2023-02-14T08:56:33.352Z,139.72
2023-02-14T08:59:02.609Z,139.28
2023-02-14T09:01:31.978Z,135.80
2023-02-14T09:04:02.211Z,123.25
2023-02-14T09:06:31.859Z,94.47
2023-02-14T09:09:02.549Z,66.37
2023-02-14T09:11:32.536Z,50.20
2023-02-14T09:14:02.088Z,43.63
2023-02-14T09:16:31.786Z,41.48
2023-02-14T09:19:01.376Z,40.80
2023-02-14T09:21:30.684Z,39.18
2023-02-14T09:23:59.917Z,35.68
2023-02-14T09:26:29.380Z,33.63
2023-02-14T09:28:59.212Z,34.70
2023-02-14T09:31:28.557Z,35.92
2023-02-14T09:34:16.354Z,32.40
2023-02-14T09:36:45.625Z,33.10
2023-02-14T09:39:15.179Z,35.83
2023-02-14T09:41:47.674Z,34.10
2023-02-14T09:46:58.164Z,32.13
2023-02-14T09:49:36.478Z,31.10
2023-02-14T09:52:08.178Z,31.30
2023-02-14T09:54:38.340Z,32.63
2023-02-14T09:57:33.805Z,32.35
2023-02-14T10:00:21.078Z,32.33
2023-02-14T10:03:08.357Z,33.18
2023-02-14T10:05:46.643Z,32.13
2023-02-14T10:08:39.958Z,36.28
2023-02-14T10:11:11.813Z,34.48
2023-02-14T10:13:58.827Z,36.58
2023-02-14T10:16:33.481Z,32.88
2023-02-14T10:19:05.261Z,32.83
2023-02-14T10:21:47.919Z,38.33
2023-02-14T10:24:26.007Z,34.38
2023-02-14T10:26:58.144Z,32.93
2023-02-14T10:29:27.729Z,34.55
2023-02-14T10:32:02.458Z,35.55
2023-02-14T10:34:43.643Z,32.45
2023-02-14T10:37:28.134Z,32.98
2023-02-14T10:40:09.736Z,33.15
2023-02-14T10:43:02.569Z,32.60
2023-02-14T10:48:17.160Z,32.58
2023-02-14T10:51:17.907Z,33.18
2023-02-14T10:54:07.960Z,34.00
2023-02-14T10:56:43.650Z,31.93
2023-02-14T10:59:19.334Z,34.58
2023-02-14T11:01:50.821Z,34.18
2023-02-14T11:04:22.450Z,32.20
2023-02-14T11:06:51.716Z,33.48
2023-02-14T11:09:21.587Z,32.70
2023-02-14T11:11:52.959Z,33.78
2023-02-14T11:14:26.261Z,33.53
2023-02-14T11:16:56.740Z,34.85
2023-02-14T11:19:28.859Z,33.33
2023-02-14T11:21:59.834Z,35.00
2023-02-14T11:24:35.079Z,34.13
2023-02-14T11:27:13.060Z,34.13
2023-02-14T11:29:49.191Z,36.75
2023-02-14T11:32:27.117Z,35.70
2023-02-14T11:35:05.177Z,39.08
2023-02-14T11:37:45.536Z,38.08
2023-02-14T11:40:32.547Z,34.40
2023-02-14T11:43:14.001Z,35.40
2023-02-14T11:45:38.633Z,37.17
2023-02-14T11:48:31.461Z,38.78
2023-02-14T11:51:17.306Z,38.42
2023-02-14T11:53:55.897Z,37.58
2023-02-14T11:56:25.776Z,36.80
2023-02-14T11:59:02.627Z,39.67
2023-02-14T12:01:33.886Z,37.35
2023-02-14T12:04:06.139Z,37.00
2023-02-14T12:09:25.987Z,38.55
2023-02-14T12:11:59.796Z,37.75
2023-02-14T12:14:34.476Z,36.42
2023-02-14T12:17:28.172Z,38.35
2023-02-14T12:20:15.933Z,37.73
2023-02-14T12:22:53.565Z,39.20
2023-02-14T12:25:34.833Z,35.60
2023-02-14T12:28:10.329Z,35.75
2023-02-14T12:30:40.237Z,36.83
2023-02-14T12:33:24.765Z,36.20
2023-02-14T12:36:09.068Z,38.53
2023-02-14T12:38:56.840Z,37.93
2023-02-14T12:41:47.546Z,39.05
2023-02-14T12:44:26.026Z,39.78
2023-02-14T12:47:08.262Z,38.20
2023-02-14T12:49:56.045Z,38.78
2023-02-14T12:52:34.319Z,39.60
2023-02-14T12:55:28.604Z,39.38
2023-02-14T12:58:03.538Z,41.63
2023-02-14T13:00:51.304Z,40.30
2023-02-14T13:03:30.346Z,40.05
2023-02-14T13:06:25.025Z,39.03
2023-02-14T13:09:15.456Z,38.40
2023-02-14T13:11:59.766Z,43.23
2023-02-14T13:14:50.124Z,44.03
2023-02-14T13:17:40.546Z,42.30
2023-02-14T13:20:41.172Z,42.95
2023-02-14T13:23:16.796Z,43.85
2023-02-14T13:26:04.150Z,40.78
2023-02-14T13:28:34.311Z,40.98
2023-02-14T13:31:04.785Z,46.80
2023-02-14T13:33:37.905Z,42.58
2023-02-14T13:36:12.621Z,40.90
2023-02-14T13:38:47.563Z,42.13
2023-02-14T13:41:17.539Z,41.28
2023-02-14T13:43:57.754Z,41.88
2023-02-14T13:46:39.201Z,43.23
2023-02-14T13:49:27.074Z,44.50
2023-02-14T13:52:05.043Z,44.85
2023-02-14T13:54:46.744Z,46.37
2023-02-14T13:57:36.798Z,46.40
2023-02-14T14:00:21.581Z,46.75
2023-02-14T14:02:53.573Z,44.83
2023-02-14T14:05:42.869Z,50.10
2023-02-14T14:08:25.432Z,45.33
2023-02-14T14:10:57.120Z,48.92
2023-02-14T14:13:46.723Z,49.33
2023-02-14T14:16:30.999Z,48.85
2023-02-14T14:19:06.953Z,51.35
2023-02-14T14:21:39.346Z,48.08
2023-02-14T14:24:26.063Z,51.73
2023-02-14T14:27:24.650Z,47.00
2023-02-14T14:29:59.831Z,49.70
2023-02-14T14:32:35.379Z,47.53
2023-02-14T14:35:10.672Z,46.83
2023-02-14T14:37:49.064Z,48.95
2023-02-14T14:40:31.462Z,46.65
2023-02-14T14:43:18.017Z,47.27
2023-02-14T14:45:48.173Z,46.98
2023-02-14T14:48:35.797Z,50.70
2023-02-14T14:51:06.683Z,45.78
2023-02-14T14:53:45.378Z,47.50
2023-02-14T14:56:20.554Z,44.33
2023-02-14T14:58:50.134Z,46.25
2023-02-14T15:01:39.935Z,51.80
2023-02-14T15:04:28.530Z,45.88
2023-02-14T15:06:59.586Z,46.95
2023-02-14T15:09:33.686Z,47.38
2023-02-14T15:12:21.807Z,49.73
2023-02-14T15:14:53.835Z,48.42
2023-02-14T15:17:26.048Z,48.75
2023-02-14T15:19:57.397Z,51.10
2023-02-14T15:22:33.820Z,49.83
2023-02-14T15:27:52.284Z,51.45
2023-02-14T15:30:26.291Z,52.95
2023-02-14T15:32:56.184Z,54.30
2023-02-14T15:35:28.682Z,50.10
2023-02-14T15:40:34.218Z,54.30
2023-02-14T15:43:29.053Z,54.90
2023-02-14T15:46:03.079Z,56.08
2023-02-14T15:48:34.141Z,54.55
2023-02-14T15:51:06.094Z,54.23
2023-02-14T15:53:41.535Z,54.80
2023-02-14T15:56:24.318Z,56.50
2023-02-14T16:01:24.257Z,55.75
2023-02-14T16:03:57.411Z,56.75
2023-02-14T16:06:42.754Z,59.08
2023-02-14T16:09:27.476Z,56.05
2023-02-14T16:11:56.962Z,54.88
2023-02-14T16:14:39.768Z,52.93
2023-02-14T16:17:14.085Z,69.85
2023-02-14T16:19:45.651Z,67.22
2023-02-14T16:22:26.247Z,59.35
2023-02-14T16:24:55.530Z,57.90
2023-02-14T16:27:24.875Z,60.92
2023-02-14T16:29:54.676Z,61.18
2023-02-14T16:32:25.773Z,60.78
2023-02-14T16:34:56.153Z,59.20
2023-02-14T16:37:31.736Z,58.28
2023-02-14T16:40:02.221Z,57.38
2023-02-14T16:42:32.710Z,56.75
2023-02-14T16:45:02.396Z,60.15
2023-02-14T16:47:31.961Z,63.38
2023-02-14T16:50:01.532Z,65.28
2023-02-14T16:52:31.105Z,61.33
2023-02-14T16:55:00.412Z,64.40
2023-02-14T16:57:33.075Z,64.45
2023-02-14T17:00:02.520Z,63.87
2023-02-14T17:02:32.177Z,63.70
2023-02-14T17:05:01.679Z,64.35
2023-02-14T17:07:32.557Z,65.72
2023-02-14T17:10:18.427Z,61.95
2023-02-14T17:12:48.832Z,65.57
2023-02-14T17:15:21.667Z,73.12
2023-02-14T17:17:55.932Z,67.20
2023-02-14T17:20:25.608Z,66.20
2023-02-14T17:23:01.485Z,74.12
2023-02-14T17:25:31.856Z,73.95
2023-02-14T17:28:02.202Z,78.12
2023-02-14T17:30:31.886Z,76.57
2023-02-14T17:33:01.532Z,74.47
2023-02-14T17:35:31.109Z,73.92
2023-02-14T17:38:00.608Z,74.35
2023-02-14T17:40:30.917Z,75.83
2023-02-14T17:43:01.757Z,64.97
2023-02-14T17:45:31.044Z,80.03
2023-02-14T17:48:01.684Z,78.05
2023-02-14T17:50:31.302Z,81.92
2023-02-14T17:53:00.744Z,74.72
2023-02-14T17:55:29.948Z,77.15
2023-02-14T17:57:59.412Z,79.00
2023-02-14T18:00:28.933Z,67.03
2023-02-14T18:02:58.723Z,80.28
2023-02-14T18:05:28.129Z,84.75
2023-02-14T18:07:58.244Z,86.02
2023-02-14T18:10:27.757Z,86.63
2023-02-14T18:12:57.163Z,89.80
2023-02-14T18:15:27.799Z,92.80
2023-02-14T18:17:57.262Z,88.03
2023-02-14T18:20:26.960Z,91.80
2023-02-14T18:22:56.538Z,94.25
2023-02-14T18:25:26.066Z,87.20
2023-02-14T18:27:55.544Z,85.57
2023-02-14T18:30:25.133Z,88.47
2023-02-14T18:32:54.881Z,75.70
2023-02-14T18:35:25.249Z,73.10
2023-02-14T18:37:54.522Z,79.47
2023-02-14T18:40:23.786Z,85.57
2023-02-14T18:42:53.146Z,90.17
2023-02-14T18:45:22.552Z,90.50
2023-02-14T18:47:52.263Z,105.95
2023-02-14T18:50:21.652Z,99.70
2023-02-14T18:52:50.955Z,90.20
2023-02-14T18:55:20.186Z,102.10
2023-02-14T18:57:49.587Z,114.28
2023-02-14T19:00:19.390Z,107.25
2023-02-14T19:02:49.385Z,91.00
2023-02-14T19:05:19.351Z,87.37
2023-02-14T19:07:48.852Z,82.02
2023-02-14T19:10:18.489Z,84.15
2023-02-14T19:12:47.809Z,90.32
2023-02-14T19:15:19.137Z,101.18
2023-02-14T19:17:48.770Z,110.72
2023-02-14T19:20:18.119Z,114.47
2023-02-14T19:22:48.400Z,112.55
2023-02-14T19:25:17.973Z,119.25
2023-02-14T19:27:48.110Z,115.95
2023-02-14T19:30:18.088Z,127.02
2023-02-14T19:32:48.035Z,121.80
2023-02-14T19:35:17.443Z,103.35
2023-02-14T19:37:47.717Z,107.17
2023-02-14T19:40:17.286Z,90.72
2023-02-14T19:42:46.709Z,95.60
2023-02-14T19:45:17.010Z,104.40
2023-02-14T19:47:47.705Z,105.35
2023-02-14T19:50:19.448Z,108.50
2023-02-14T19:52:50.123Z,91.82
2023-02-14T19:55:22.339Z,88.40
2023-02-14T19:57:51.863Z,92.95
2023-02-14T20:00:21.436Z,103.85
2023-02-14T20:02:51.221Z,91.30
2023-02-14T20:05:21.046Z,93.27
2023-02-14T20:07:55.173Z,103.27
2023-02-14T20:10:24.601Z,101.97
2023-02-14T20:12:57.488Z,104.67
2023-02-14T20:15:29.232Z,97.33
2023-02-14T20:17:58.700Z,101.53
2023-02-14T20:20:28.305Z,103.60
2023-02-14T20:22:57.605Z,102.67
2023-02-14T20:25:27.100Z,104.58
2023-02-14T20:27:56.424Z,110.83
2023-02-14T20:30:26.030Z,123.18
2023-02-14T20:32:55.325Z,121.35
2023-02-14T20:35:24.792Z,122.35
2023-02-14T20:37:55.036Z,120.90
2023-02-14T20:40:24.492Z,103.35
2023-02-14T20:42:54.002Z,109.63
2023-02-14T20:45:26.340Z,129.90
2023-02-14T20:47:55.673Z,148.75
2023-02-14T20:50:24.994Z,143.00
2023-02-14T20:52:55.263Z,139.05
2023-02-14T20:55:26.571Z,134.22
2023-02-14T20:57:58.705Z,113.72
2023-02-14T21:00:28.281Z,123.42
2023-02-14T21:02:58.786Z,141.60
2023-02-14T21:05:28.960Z,124.38
2023-02-14T21:07:58.506Z,120.33
2023-02-14T21:10:28.469Z,126.62
2023-02-14T21:12:58.394Z,136.40
2023-02-14T21:15:28.005Z,132.30
2023-02-14T21:17:57.788Z,142.72
2023-02-14T21:20:27.216Z,129.97
2023-02-14T21:22:57.670Z,135.57
2023-02-14T21:25:27.131Z,133.12
2023-02-14T21:27:56.393Z,115.22
2023-02-14T21:30:27.926Z,121.45
2023-02-14T21:32:57.698Z,143.57
2023-02-14T21:35:27.184Z,124.95
2023-02-14T21:37:56.493Z,130.67
2023-02-14T21:40:25.817Z,138.85
2023-02-14T21:42:55.312Z,134.20
2023-02-14T21:45:42.280Z,141.65
2023-02-14T21:48:29.895Z,143.05
2023-02-14T21:51:00.574Z,136.35
2023-02-14T21:53:32.682Z,151.78
2023-02-14T21:56:13.330Z,130.65
2023-02-14T21:58:53.371Z,128.45
2023-02-14T22:01:27.593Z,126.35
2023-02-14T22:06:29.248Z,138.80
2023-02-14T22:09:01.774Z,191.60
2023-02-14T22:11:38.937Z,157.52
2023-02-14T22:14:14.449Z,131.82
2023-02-14T22:16:44.354Z,123.45
2023-02-14T22:19:16.816Z,132.67
2023-02-14T22:22:06.813Z,133.32
2023-02-14T22:24:37.347Z,137.50
2023-02-14T22:27:09.128Z,134.05
2023-02-14T22:29:39.264Z,134.82
2023-02-14T22:32:10.457Z,124.35
2023-02-14T22:34:41.943Z,131.97
2023-02-14T22:37:12.079Z,142.47
2023-02-14T22:39:42.000Z,129.65
2023-02-14T22:42:11.285Z,124.85
2023-02-14T22:44:43.116Z,129.70
2023-02-14T22:47:19.547Z,120.37
2023-02-14T22:49:49.146Z,131.75
2023-02-14T22:52:18.454Z,148.13
2023-02-14T22:54:48.699Z,145.35
2023-02-14T22:57:20.302Z,142.77
2023-02-14T22:59:49.346Z,119.85
2023-02-14T23:02:18.685Z,136.90
2023-02-14T23:04:49.495Z,155.97
2023-02-14T23:07:18.703Z,140.80
2023-02-14T23:09:49.562Z,156.32
2023-02-14T23:12:36.576Z,159.27
2023-02-14T23:15:24.247Z,150.47
2023-02-14T23:18:11.324Z,159.93
2023-02-14T23:20:58.697Z,160.67
2023-02-14T23:23:32.534Z,151.68
2023-02-14T23:26:02.296Z,153.18
2023-02-14T23:28:31.763Z,157.37
2023-02-14T23:31:02.776Z,161.82
2023-02-14T23:33:31.998Z,169.37
2023-02-14T23:36:04.137Z,153.82
2023-02-14T23:38:33.347Z,156.25
2023-02-14T23:41:28.336Z,166.77
2023-02-14T23:43:57.680Z,173.50
2023-02-14T23:46:27.262Z,166.80
2023-02-14T23:48:56.564Z,160.18
2023-02-14T23:51:25.877Z,151.53
2023-02-14T23:53:55.567Z,146.18
2023-02-14T23:56:25.204Z,168.55
2023-02-14T23:58:54.433Z,158.05
